Historyczne dane pomiarowe

Dodano dane terminowe – wersja testowa.

Dane z okresu 1951-2019

Wersja bazy: 1.34 [2019-03-16, lista zmian], aktualizacja planowana na 2019-04-15

Dane meteo z obszaru Polski uzyskane na podstawie danych udostępnionych przez Instytut Meteorologii i Gospodarki Wodnej – Państwowy Instytut Badawczy.

 

Wybierz Datę:    

       

TemperaturaWilgotnośćWiatrCiśnienieOpadyŚniegCzas trwania zjawisk
 Stacja t tx tn tng RH VA  wxwx mslp ppp RRR   cm mm wxwxwxwxwxwxwx
1955-04-17 -9.2 -4.5-11.6- 89.3- 8.0 12.7---- 42.2--252---------
1955-04-18-15.6-11.6-17.2- 87.0- 8.0 6.7---- 6.0--290---------
1955-04-19-12.0 -6.5-15.9- 87.0- 7.7 1.7---- 2.2--305---------
1955-04-20 -9.6 -8.3-15.8- 87.8- 8.0 7.0---- 1.9--303---------
1955-04-21 -6.7 -4.3 -8.4- 91.5- 6.7 6.3---- 1.8--310---------
1955-04-22-10.6 -7.6-11.1- 87.8- 5.0 5.3---- 0.6--312---------
1955-04-23 -8.4 -6.5-12.1- 81.5- 5.7 4.7---- 0.4--308---------
1955-04-24 -4.5 -3.2 -8.1- 91.0- 7.7 7.0---- 8.5--306---------
1955-04-25-11.3 -4.2-12.7- 88.8- 8.0 9.0---- 4.3--310---------
1955-04-26 -9.6 -7.4-14.2- 76.0- 2.3 6.0---- 0.0--311---------
1955-04-27 -2.7 -1.2 -8.1- 79.8- 6.0 6.3---- 0.0--306---------
1955-04-28 1.1 2.3 -3.0- 72.8- 7.3 6.7---- 0.0--304---------
1955-04-29 4.8 7.1 1.6- 78.5- 6.3 3.3---- 0.0--296---------
1955-04-30 7.8 10.9 4.4- 68.8- 1.7 1.3---- 0.0--285---------
1955-05-01 7.9 10.8 6.0- 59.8- 3.0 5.7---- 0.0--245---------
1955-05-02 7.3 10.7 5.5- 63.0- 3.0 3.7---- 1.7--232---------
1955-05-03 1.1 6.9 -2.7- 91.5- 5.7 5.7---- 4.0--220---------
1955-05-04 -0.2 0.9 -2.7- 89.5- 5.3 3.7---- 0.0--218---------
1955-05-05 1.1 2.9 -0.4- 83.5- 7.0 10.7---- 1.8--212---------
1955-05-06 3.3 4.8 0.1- 66.8- 4.3 13.0---- 0.1--202---------
1955-05-07 1.2 6.9 -1.9- 92.5- 7.7 7.7---- 1.3--190---------
1955-05-08 -4.0 -1.7 -5.6- 77.8- 5.3 4.3---- 0.5--185---------
1955-05-09 4.9 6.2 -4.2- 31.8- 2.3 7.3---- 0.0--185---------
1955-05-10 6.5 8.8 4.5- 59.8- 6.0 9.0---- 0.8--172---------
1955-05-11 1.1 5.2 -0.8- 79.3- 7.7 3.7---- 4.6--168---------
1955-05-12 -3.1 1.6 -5.2- 81.0- 5.3 2.7---- 1.1--166---------
1955-05-13 2.7 6.4 -3.8- 44.3- 1.7 5.0---- 0.0--158---------
1955-05-14 4.8 7.7 2.0- 59.0- 2.7 8.7---- 0.0--150---------
1955-05-15 4.1 5.9 3.2- 94.8- 7.0 7.0---- 30.3--135---------
1955-05-16 -5.0 4.0 -6.6- 86.5- 5.3 8.7---- 14.9--135---------
107.9 ms

 

Źródłem pochodzenia danych jest Instytut Meteorologii i Gospodarki Wodnej – Państwowy Instytut Badawczy. Dane Instytutu Meteorologii i Gospodarki Wodnej – Państwowego Instytutu Badawczego zostały przetworzone.

Dane źródłowe można odnaleźć na stronie https://dane.imgw.pl